MGRT

Retalhuleu Airport

Airport
ICAO code
MGRT
IATA Code
RER
Summary
ICAO Region
CARSAM
ICAO Territory
Location

Retalhuleu, Retalhuleu Department

Serving
Retalhuleu
Elevation
656 ft
Coordinates
14° 31' 26" N , 91° 41' 42" W
KCC
Metar
Observation
MGRT 091900Z 22006KT 9999 SCT020 31/21 Q1013 A2991 VOL. SANTA MARIA Y SANTIAGUITO EN ACTIVIDAD
Station
Retalhuleu
Date/Time
2022-12-09 19:00:00
Wind direction
220°
Wind speed
06 kts
Lowest cloud amount
scattered clouds
Temperature
31°C
Dew point
21°C
Humidity
55%
QNH
1013 hPa
Weather condition
n/a

Retalhuleu Airport, or Base Aérea del Sur, is an airport serving Retalhuleu, the capital of Retalhuleu Department in Guatemala.

Climatology

Tropical savannah climate (Köppen climate classification Aw)

Runways

Designator Length Width Surface Rops
4/22 1544 30 ASP No/No

Airport map

Aerial View

SKYbrary Partners:

Safety knowledge contributed by: